Time;durP1;ratioP1;P1;durP2;ratioP2;P2;SDS_P1;SDS_P2;PMS_P1;PMS_P2;Temp;Humidity;BMP_temperature;BMP_pressure;BME280_temperature;BME280_humidity;BME280_pressure;Samples;Min_cycle;Max_cycle;Signal;HPM_P1;HPM_P2
2022/11/30 00:00:17;;;;;;;26.23;18.52;;;6.50;99.90;;;;;;5037747;28;20066;-81
2022/11/30 00:02:43;;;;;;;25.10;18.50;;;6.40;99.90;;;;;;5053456;28;20040;-81
2022/11/30 00:05:09;;;;;;;26.00;18.67;;;6.40;99.90;;;;;;5069688;28;20546;-81
2022/11/30 00:07:35;;;;;;;23.63;17.05;;;6.30;99.90;;;;;;5053419;28;20060;-81
2022/11/30 00:10:01;;;;;;;23.05;16.92;;;6.30;99.90;;;;;;5021840;28;20544;-81
2022/11/30 00:12:27;;;;;;;23.85;17.58;;;6.20;99.90;;;;;;5028454;28;20036;-81
2022/11/30 00:14:53;;;;;;;27.15;18.27;;;6.20;99.90;;;;;;5053593;28;20072;-81
2022/11/30 00:17:19;;;;;;;26.02;18.55;;;6.20;99.90;;;;;;5052205;28;20075;-81
2022/11/30 00:19:45;;;;;;;25.40;17.45;;;6.30;99.90;;;;;;5053203;28;20094;-81
2022/11/30 00:22:10;;;;;;;24.88;15.68;;;6.60;99.90;;;;;;5037282;28;20392;-81
2022/11/30 00:24:36;;;;;;;21.50;16.20;;;6.10;99.90;;;;;;5021315;28;20039;-81
2022/11/30 00:27:02;;;;;;;24.70;17.35;;;6.00;99.90;;;;;;5037649;28;20523;-81
2022/11/30 00:29:28;;;;;;;26.02;18.23;;;6.80;99.90;;;;;;5037511;28;20090;-81
2022/11/30 00:31:54;;;;;;;25.33;16.95;;;6.00;99.90;;;;;;5016125;28;20122;-81
2022/11/30 00:34:19;;;;;;;25.27;18.55;;;5.90;99.90;;;;;;5021183;28;20093;-81
2022/11/30 00:36:45;;;;;;;28.88;19.65;;;5.90;99.90;;;;;;5038410;28;20044;-81
2022/11/30 00:39:10;;;;;;;32.08;19.92;;;5.90;99.90;;;;;;5034190;28;20041;-82
2022/11/30 00:41:36;;;;;;;32.15;19.80;;;5.90;99.90;;;;;;5021384;28;20398;-82
2022/11/30 00:44:02;;;;;;;33.85;20.75;;;5.90;99.90;;;;;;5036865;28;20086;-81
2022/11/30 00:46:28;;;;;;;101.30;24.90;;;6.00;99.90;;;;;;5035548;28;20041;-81
2022/11/30 00:48:53;;;;;;;82.18;23.27;;;6.90;99.90;;;;;;5052904;28;20037;-81
2022/11/30 00:51:19;;;;;;;107.88;21.92;;;5.90;99.90;;;;;;5019962;28;20568;-81
2022/11/30 00:53:46;;;;;;;79.40;20.38;;;5.90;99.90;;;;;;5037272;28;20052;-82
2022/11/30 00:56:12;;;;;;;98.82;20.90;;;6.30;99.90;;;;;;5037011;28;20056;-81
2022/11/30 00:58:39;;;;;;;78.57;19.17;;;6.00;99.90;;;;;;5053400;28;20044;-82
2022/11/30 01:01:05;;;;;;;69.40;18.70;;;5.90;99.90;;;;;;5053792;28;20131;-82
2022/11/30 01:03:32;;;;;;;43.65;17.48;;;6.00;99.90;;;;;;5053720;28;20481;-81
2022/11/30 01:06:06;;;;;;;47.17;16.88;;;5.90;99.90;;;;;;5036249;28;20043;-81
2022/11/30 01:08:33;;;;;;;35.92;15.55;;;5.90;99.90;;;;;;5054681;28;20036;-82
2022/11/30 01:11:11;;;;;;;26.45;14.85;;;6.80;99.90;;;;;;5057962;28;20040;-81
2022/11/30 01:13:36;;;;;;;28.98;14.20;;;5.90;99.90;;;;;;5040437;28;20082;-82
2022/11/30 01:16:08;;;;;;;21.80;13.55;;;6.70;99.90;;;;;;5056200;28;20045;-81
2022/11/30 01:18:36;;;;;;;25.10;14.27;;;5.80;99.90;;;;;;5056202;28;20110;-82
2022/11/30 01:21:07;;;;;;;17.55;13.07;;;5.70;99.90;;;;;;5073435;28;20045;-81
2022/11/30 01:23:33;;;;;;;18.33;13.23;;;5.70;99.90;;;;;;5018512;28;20040;-81
2022/11/30 01:25:58;;;;;;;17.92;13.55;;;6.00;99.90;;;;;;5057034;28;20393;-81
2022/11/30 01:28:24;;;;;;;19.42;13.93;;;5.60;99.90;;;;;;5039075;28;20041;-81
2022/11/30 01:30:58;;;;;;;19.55;13.40;;;5.50;99.90;;;;;;5023095;28;20044;-82
2022/11/30 01:33:24;;;;;;;18.67;13.50;;;5.50;99.90;;;;;;5072369;28;20040;-81
2022/11/30 01:36:08;;;;;;;17.80;13.15;;;6.10;99.90;;;;;;5040311;28;20082;-82
2022/11/30 01:39:00;;;;;;;23.58;14.73;;;5.30;99.90;;;;;;5056587;28;20093;-81
2022/11/30 01:41:31;;;;;;;23.63;14.82;;;6.40;99.90;;;;;;5037813;28;20095;-81
2022/11/30 01:44:16;;;;;;;19.42;14.35;;;5.20;99.90;;;;;;5055611;28;20050;-82
2022/11/30 01:46:50;;;;;;;22.60;14.97;;;6.80;99.90;;;;;;5071678;28;20487;-82
2022/11/30 01:49:22;;;;;;;26.55;16.17;;;5.90;99.90;;;;;;5072824;28;20051;-81
2022/11/30 01:51:57;;;;;;;19.90;14.25;;;5.90;99.90;;;;;;5071833;28;20497;-82
2022/11/30 01:54:30;;;;;;;21.38;15.45;;;5.80;99.90;;;;;;5054935;28;20507;-82
2022/11/30 01:57:01;;;;;;;25.33;16.73;;;5.10;99.90;;;;;;5055640;28;20040;-82
2022/11/30 01:59:28;;;;;;;21.90;16.30;;;5.40;99.90;;;;;;5071932;28;20078;-81
2022/11/30 02:01:54;;;;;;;21.42;15.52;;;5.10;99.90;;;;;;5071001;28;20061;-81
2022/11/30 02:04:27;;;;;;;20.85;15.75;;;6.60;99.90;;;;;;5055358;28;20177;-82
2022/11/30 02:06:53;;;;;;;23.88;15.98;;;5.10;99.90;;;;;;5072122;28;20051;-81
2022/11/30 02:09:21;;;;;;;23.05;16.60;;;5.20;99.90;;;;;;5022698;28;20127;-81
2022/11/30 02:11:48;;;;;;;24.20;16.35;;;5.50;99.90;;;;;;5055141;28;20071;-81
2022/11/30 02:14:14;;;;;;;24.30;16.63;;;5.40;99.90;;;;;;5054974;28;20040;-81
2022/11/30 02:16:39;;;;;;;25.15;16.52;;;5.80;99.90;;;;;;5054170;28;20500;-82
2022/11/30 02:19:29;;;;;;;25.27;17.75;;;6.20;99.90;;;;;;5070521;28;20215;-82
2022/11/30 02:22:06;;;;;;;22.83;16.75;;;5.40;99.90;;;;;;5070717;28;20036;-82
2022/11/30 02:25:02;;;;;;;24.20;17.75;;;5.40;99.90;;;;;;5070879;28;20043;-81
2022/11/30 02:27:57;;;;;;;30.13;17.13;;;5.40;99.90;;;;;;5054486;28;20119;-81
2022/11/30 02:30:23;;;;;;;25.35;17.23;;;5.50;99.90;;;;;;5071163;28;20480;-81
2022/11/30 02:32:58;;;;;;;27.73;17.33;;;6.80;99.90;;;;;;5054781;28;20485;-82
2022/11/30 02:35:28;;;;;;;24.73;16.95;;;5.50;99.90;;;;;;5070420;28;20040;-81
2022/11/30 02:37:56;;;;;;;30.52;18.58;;;5.50;99.90;;;;;;5070324;28;20047;-81
2022/11/30 02:40:23;;;;;;;29.60;18.65;;;5.60;99.90;;;;;;5052328;28;20097;-81
2022/11/30 02:42:51;;;;;;;30.30;18.38;;;5.60;99.90;;;;;;5054387;28;20032;-81
2022/11/30 02:45:33;;;;;;;29.65;17.98;;;6.10;99.90;;;;;;5069718;28;20119;-82
2022/11/30 02:48:10;;;;;;;29.42;18.08;;;5.60;99.90;;;;;;5054206;28;20037;-81
2022/11/30 02:50:46;;;;;;;26.73;17.67;;;6.30;99.90;;;;;;5071355;28;20162;-82
2022/11/30 02:53:12;;;;;;;27.40;17.75;;;5.70;99.90;;;;;;5051376;28;20032;-81
2022/11/30 02:55:38;;;;;;;29.65;17.33;;;5.60;99.90;;;;;;5037136;28;20036;-81
2022/11/30 02:58:05;;;;;;;25.95;17.23;;;5.60;99.90;;;;;;5039564;28;20123;-81
2022/11/30 03:00:31;;;;;;;26.20;17.08;;;5.70;99.90;;;;;;5073831;28;20032;-82
2022/11/30 03:02:56;;;;;;;27.52;18.63;;;6.90;99.90;;;;;;5055837;28;20048;-81
2022/11/30 03:05:22;;;;;;;27.15;17.15;;;5.70;99.90;;;;;;5054531;28;20082;-81
2022/11/30 03:07:48;;;;;;;24.92;17.17;;;6.50;99.90;;;;;;5023829;28;20052;-82
2022/11/30 03:10:14;;;;;;;26.40;17.63;;;5.70;99.90;;;;;;5054148;28;20044;-81
2022/11/30 03:12:39;;;;;;;31.65;18.63;;;5.70;99.90;;;;;;5037400;28;20075;-81
2022/11/30 03:15:06;;;;;;;28.13;17.55;;;6.80;99.90;;;;;;5020598;28;20044;-81
2022/11/30 03:17:31;;;;;;;29.70;17.98;;;5.70;99.90;;;;;;5054366;28;20072;-82
2022/11/30 03:19:57;;;;;;;32.20;20.10;;;5.70;99.90;;;;;;5050068;28;21046;-82
2022/11/30 03:22:23;;;;;;;33.47;19.50;;;6.40;99.90;;;;;;5069849;28;20497;-81
2022/11/30 03:24:49;;;;;;;28.38;18.13;;;5.70;99.90;;;;;;5045771;28;20041;-82
2022/11/30 03:27:15;;;;;;;32.50;19.00;;;5.70;99.90;;;;;;5020223;28;20036;-81
2022/11/30 03:29:41;;;;;;;29.80;19.17;;;5.60;99.90;;;;;;5053491;28;20049;-82
2022/11/30 03:32:06;;;;;;;29.13;18.95;;;5.70;99.90;;;;;;5019269;28;20087;-82
2022/11/30 03:34:32;;;;;;;26.95;18.20;;;5.80;99.90;;;;;;5020526;28;20394;-82
2022/11/30 03:36:58;;;;;;;33.88;19.67;;;5.60;99.90;;;;;;5070352;28;20048;-81
2022/11/30 03:39:24;;;;;;;28.08;17.65;;;5.60;99.90;;;;;;5035761;28;20040;-81
2022/11/30 03:41:50;;;;;;;28.50;18.83;;;6.80;99.90;;;;;;5050593;28;20085;-82
2022/11/30 03:44:16;;;;;;;27.45;18.35;;;6.70;99.90;;;;;;5036647;28;20115;-81
2022/11/30 03:46:42;;;;;;;32.58;18.42;;;6.10;99.90;;;;;;5051833;28;20182;-81
2022/11/30 03:49:07;;;;;;;29.58;17.75;;;5.50;99.90;;;;;;5069849;28;20546;-81
2022/11/30 03:51:34;;;;;;;27.25;17.73;;;5.50;99.90;;;;;;5020359;28;20412;-81
2022/11/30 03:54:00;;;;;;;27.35;17.52;;;5.50;99.90;;;;;;5052578;28;20051;-81
2022/11/30 03:56:26;;;;;;;26.70;17.70;;;5.40;99.90;;;;;;5019736;28;20041;-81
2022/11/30 03:58:51;;;;;;;25.65;17.70;;;5.40;99.90;;;;;;5036896;28;20120;-81
2022/11/30 04:01:22;;;;;;;26.48;17.50;;;5.40;99.90;;;;;;5033966;28;20064;-81
2022/11/30 04:03:51;;;;;;;27.63;17.73;;;5.30;99.90;;;;;;5051588;28;20903;-82
2022/11/30 04:06:18;;;;;;;28.48;18.00;;;5.30;99.90;;;;;;5035986;28;20191;-82
2022/11/30 04:08:44;;;;;;;31.23;18.83;;;5.30;99.90;;;;;;5035929;28;20400;-81
2022/11/30 04:11:10;;;;;;;29.58;18.83;;;6.10;99.90;;;;;;5019640;28;20044;-82
2022/11/30 04:13:37;;;;;;;27.25;18.00;;;5.80;99.90;;;;;;5053061;28;20083;-82
2022/11/30 04:16:03;;;;;;;27.17;17.25;;;6.30;99.90;;;;;;5069128;28;20102;-81
2022/11/30 04:18:30;;;;;;;27.33;15.15;;;5.10;99.90;;;;;;5051977;28;20123;-81
2022/11/30 04:20:57;;;;;;;24.90;16.75;;;5.10;99.90;;;;;;5068586;28;20116;-81
2022/11/30 04:23:24;;;;;;;27.02;16.73;;;5.00;99.90;;;;;;5035364;28;20044;-81
2022/11/30 04:25:50;;;;;;;25.95;17.15;;;5.70;99.90;;;;;;5052489;28;20029;-81
2022/11/30 04:28:17;;;;;;;29.35;16.58;;;5.30;99.90;;;;;;5068631;28;20076;-81
2022/11/30 04:30:44;;;;;;;25.77;17.02;;;6.20;99.90;;;;;;5052755;28;20094;-81
2022/11/30 04:33:11;;;;;;;26.95;18.38;;;5.00;99.90;;;;;;5052411;28;20139;-81
2022/11/30 04:35:42;;;;;;;27.35;17.50;;;4.90;99.90;;;;;;5053071;28;20102;-82
2022/11/30 04:38:08;;;;;;;29.90;18.80;;;4.90;99.90;;;;;;5051709;28;20094;-81
2022/11/30 04:40:37;;;;;;;29.10;18.65;;;4.90;99.90;;;;;;5019807;28;20438;-81
2022/11/30 04:43:03;;;;;;;27.27;17.80;;;4.90;99.90;;;;;;5053764;28;20036;-81
2022/11/30 04:45:28;;;;;;;27.88;17.52;;;5.40;99.90;;;;;;5023884;28;20051;-82
2022/11/30 04:47:54;;;;;;;27.90;17.52;;;4.90;99.90;;;;;;5040016;28;20040;-82
2022/11/30 04:50:20;;;;;;;27.05;17.60;;;5.40;99.90;;;;;;5039762;28;20033;-81
2022/11/30 04:52:46;;;;;;;25.77;17.02;;;4.90;99.90;;;;;;5056075;28;20048;-82
2022/11/30 04:55:11;;;;;;;30.02;17.88;;;5.40;99.90;;;;;;5074151;28;20484;-81
2022/11/30 04:57:37;;;;;;;27.27;17.83;;;5.20;99.90;;;;;;5025531;28;20073;-81
2022/11/30 05:00:04;;;;;;;29.15;17.98;;;4.80;99.90;;;;;;5024762;28;20409;-82
2022/11/30 05:02:30;;;;;;;32.95;18.77;;;4.90;99.90;;;;;;5071946;28;20519;-82
2022/11/30 05:04:56;;;;;;;28.88;18.20;;;5.20;99.90;;;;;;5042315;28;20025;-89
2022/11/30 05:07:21;;;;;;;30.65;18.50;;;4.90;99.90;;;;;;5045582;28;20102;-88
2022/11/30 05:09:47;;;;;;;31.23;18.92;;;5.20;99.90;;;;;;5043821;28;20041;-88
2022/11/30 05:12:13;;;;;;;29.17;18.67;;;4.90;99.90;;;;;;5028807;28;20460;-89
2022/11/30 05:14:38;;;;;;;28.52;17.75;;;6.10;99.90;;;;;;5028155;28;20044;-88
2022/11/30 05:17:04;;;;;;;25.42;16.50;;;5.50;99.90;;;;;;5025719;28;20072;-88
2022/11/30 05:19:30;;;;;;;28.30;17.73;;;4.90;99.90;;;;;;5041118;28;20443;-88
2022/11/30 05:21:55;;;;;;;31.65;18.58;;;4.90;99.90;;;;;;5044120;28;20040;-87
2022/11/30 05:24:21;;;;;;;30.60;19.17;;;5.00;99.90;;;;;;5058721;28;20041;-88
2022/11/30 05:26:47;;;;;;;28.13;18.23;;;5.00;99.90;;;;;;5059560;28;20116;-88
2022/11/30 05:29:12;;;;;;;31.35;17.45;;;5.40;99.90;;;;;;5043581;28;20480;-88
2022/11/30 05:31:39;;;;;;;29.00;18.08;;;5.90;99.90;;;;;;5067527;28;20456;-89
2022/11/30 05:34:05;;;;;;;26.42;17.40;;;5.00;99.90;;;;;;5045913;28;20055;-89
2022/11/30 05:36:31;;;;;;;28.40;18.00;;;5.00;99.90;;;;;;5042506;28;20112;-89
2022/11/30 05:38:56;;;;;;;28.55;17.73;;;5.00;99.90;;;;;;5027007;28;20094;-89
2022/11/30 05:41:22;;;;;;;30.33;18.00;;;5.00;99.90;;;;;;5075568;28;20539;-88
2022/11/30 05:43:48;;;;;;;25.48;17.23;;;4.90;99.90;;;;;;5075316;28;20561;-88
2022/11/30 05:46:14;;;;;;;27.23;16.75;;;4.50;99.90;;;;;;5021337;28;20028;-88
2022/11/30 05:48:39;;;;;;;26.52;16.25;;;5.00;99.90;;;;;;5056405;28;20036;-89
2022/11/30 05:51:14;;;;;;;23.73;15.43;;;5.60;99.90;;;;;;5057847;28;20040;-88
2022/11/30 05:53:40;;;;;;;25.23;15.93;;;5.00;99.90;;;;;;5075145;28;20045;-89
2022/11/30 05:56:09;;;;;;;23.17;16.52;;;5.80;99.90;;;;;;5041242;28;20048;-88
2022/11/30 05:58:35;;;;;;;24.05;15.95;;;5.00;99.90;;;;;;5053733;28;20044;-88
2022/11/30 06:01:01;;;;;;;24.23;16.35;;;5.30;99.90;;;;;;5078019;28;20057;-89
2022/11/30 06:03:31;;;;;;;25.75;17.20;;;6.50;99.90;;;;;;5042507;28;20500;-88
2022/11/30 06:05:57;;;;;;;28.65;17.25;;;5.10;99.90;;;;;;5041687;28;20047;-89
2022/11/30 06:08:23;;;;;;;27.55;17.38;;;6.30;99.90;;;;;;5058550;28;20036;-88
2022/11/30 06:10:49;;;;;;;27.08;16.88;;;5.10;99.90;;;;;;5059990;28;20037;-87
2022/11/30 06:13:15;;;;;;;25.20;16.05;;;5.20;99.90;;;;;;5043354;28;20489;-88
2022/11/30 06:15:41;;;;;;;24.33;16.58;;;4.10;99.90;;;;;;5043393;28;20119;-88
2022/11/30 06:18:10;;;;;;;24.45;17.00;;;5.10;99.90;;;;;;5051916;28;20053;-88
2022/11/30 06:20:35;;;;;;;25.35;15.93;;;5.10;99.90;;;;;;5060959;28;20041;-88
2022/11/30 06:23:01;;;;;;;28.90;17.05;;;5.10;99.90;;;;;;5044358;28;20051;-88
2022/11/30 06:25:27;;;;;;;29.30;17.67;;;5.70;99.90;;;;;;5043886;28;20100;-88
2022/11/30 06:27:53;;;;;;;26.95;16.83;;;5.20;99.90;;;;;;5027159;28;20198;-88
2022/11/30 06:30:19;;;;;;;29.05;17.27;;;5.10;99.90;;;;;;5057267;28;20045;-89
2022/11/30 06:32:47;;;;;;;28.75;18.02;;;5.20;99.90;;;;;;5058717;28;20068;-89
2022/11/30 06:35:13;;;;;;;27.95;17.95;;;5.10;99.90;;;;;;5057322;28;20032;-88
2022/11/30 06:37:39;;;;;;;29.23;18.15;;;5.20;99.90;;;;;;5055772;28;20052;-87
2022/11/30 06:40:06;;;;;;;28.42;18.55;;;5.20;99.90;;;;;;5056859;28;20131;-88
2022/11/30 06:42:32;;;;;;;29.95;18.95;;;5.20;99.90;;;;;;5056861;28;20079;-88
2022/11/30 06:44:58;;;;;;;32.00;18.13;;;5.70;99.90;;;;;;5071716;28;20041;-88
2022/11/30 06:47:24;;;;;;;34.63;20.08;;;5.30;99.90;;;;;;5056548;28;20042;-89
2022/11/30 06:49:50;;;;;;;36.92;20.42;;;5.30;99.90;;;;;;5023888;28;20128;-89
2022/11/30 06:52:16;;;;;;;39.92;20.52;;;5.40;99.90;;;;;;5038699;28;20123;-83
2022/11/30 06:54:42;;;;;;;35.13;21.50;;;5.30;99.90;;;;;;5055167;28;20128;-83
2022/11/30 06:57:08;;;;;;;40.00;21.08;;;5.30;99.90;;;;;;5071236;28;20076;-84
2022/11/30 06:59:36;;;;;;;32.60;19.20;;;6.40;99.90;;;;;;5053801;28;20566;-84
2022/11/30 07:02:02;;;;;;;40.28;21.50;;;5.60;99.90;;;;;;5037829;28;20115;-83
2022/11/30 07:04:28;;;;;;;35.83;20.67;;;5.40;99.90;;;;;;5055485;28;20036;-84
2022/11/30 07:06:54;;;;;;;42.80;22.77;;;5.40;99.90;;;;;;5064263;28;20574;-84
2022/11/30 07:09:20;;;;;;;38.05;22.95;;;6.20;99.90;;;;;;5049705;28;20048;-84
2022/11/30 07:11:45;;;;;;;38.10;22.95;;;5.90;99.90;;;;;;5032483;28;20040;-83
2022/11/30 07:14:11;;;;;;;36.25;21.45;;;5.40;99.90;;;;;;5056835;28;20048;-83
2022/11/30 07:16:37;;;;;;;36.75;21.48;;;5.50;99.90;;;;;;5051991;28;20053;-83
2022/11/30 07:19:02;;;;;;;36.95;21.70;;;6.00;99.90;;;;;;5064606;28;20048;-82
2022/11/30 07:21:28;;;;;;;36.70;22.38;;;5.50;99.90;;;;;;5055531;28;20111;-83
2022/11/30 07:26:41;;;;;;;36.70;21.90;;;6.80;99.90;;;;;;5073653;28;20087;-83
2022/11/30 07:29:07;;;;;;;38.78;22.55;;;5.50;99.90;;;;;;5056763;28;20111;-83
2022/11/30 07:31:33;;;;;;;35.00;20.88;;;6.20;99.90;;;;;;5056136;28;20055;-83
2022/11/30 07:34:04;;;;;;;40.60;22.70;;;5.60;99.90;;;;;;5057621;28;20075;-83
2022/11/30 07:36:30;;;;;;;40.78;23.35;;;5.70;99.90;;;;;;5054985;28;20086;-84
2022/11/30 07:38:56;;;;;;;41.40;24.08;;;5.60;99.90;;;;;;5050658;28;20068;-84
2022/11/30 07:41:22;;;;;;;44.05;25.02;;;5.60;99.90;;;;;;5059060;28;20431;-84
2022/11/30 07:43:49;;;;;;;57.72;32.33;;;5.60;99.90;;;;;;5051801;28;20115;-84
2022/11/30 07:46:16;;;;;;;46.10;25.63;;;5.60;99.90;;;;;;5052973;28;20115;-82
2022/11/30 07:48:42;;;;;;;48.63;27.50;;;5.70;99.90;;;;;;5055068;28;20044;-83
2022/11/30 07:51:14;;;;;;;57.53;30.08;;;5.70;99.90;;;;;;5053204;28;20039;-82
2022/11/30 07:53:40;;;;;;;48.33;27.10;;;5.70;99.90;;;;;;5070473;28;20044;-83
2022/11/30 07:56:09;;;;;;;44.72;25.25;;;5.70;99.90;;;;;;5069203;28;20045;-83
2022/11/30 07:58:35;;;;;;;41.35;24.65;;;5.70;99.90;;;;;;5068303;28;20036;-82
2022/11/30 08:01:08;;;;;;;39.33;22.80;;;6.30;99.90;;;;;;5028174;28;20041;-82
2022/11/30 08:03:35;;;;;;;38.78;24.17;;;5.80;99.90;;;;;;5054379;28;20044;-82
2022/11/30 08:06:03;;;;;;;39.00;23.25;;;5.70;99.90;;;;;;5055130;28;20070;-81
2022/11/30 08:08:34;;;;;;;41.78;23.83;;;5.80;99.90;;;;;;5048972;28;20044;-81
2022/11/30 08:11:01;;;;;;;40.85;23.77;;;5.80;99.90;;;;;;5053044;28;20052;-81
2022/11/30 08:13:27;;;;;;;40.13;22.65;;;5.80;99.90;;;;;;5052683;28;20048;-82
2022/11/30 08:15:53;;;;;;;42.72;24.65;;;5.80;99.90;;;;;;5035558;28;20055;-81
2022/11/30 08:18:19;;;;;;;39.88;24.38;;;5.80;99.90;;;;;;5039754;28;20045;-81
2022/11/30 08:20:44;;;;;;;37.83;22.38;;;5.90;99.90;;;;;;5071798;28;20485;-82
2022/11/30 08:23:11;;;;;;;42.20;24.25;;;5.90;99.90;;;;;;5050415;28;20357;-81
2022/11/30 08:25:37;;;;;;;40.63;23.80;;;5.90;99.90;;;;;;5074439;28;20028;-81
2022/11/30 08:28:03;;;;;;;41.13;24.38;;;5.90;99.90;;;;;;5037554;28;20032;-81
2022/11/30 08:30:29;;;;;;;39.80;23.85;;;5.90;99.90;;;;;;5069826;28;20041;-82
2022/11/30 08:32:56;;;;;;;42.83;24.08;;;6.00;99.90;;;;;;5069947;28;20090;-82
2022/11/30 08:35:22;;;;;;;43.90;23.95;;;6.40;99.90;;;;;;5041377;28;20040;-82
2022/11/30 08:37:47;;;;;;;44.50;25.33;;;6.40;99.90;;;;;;5058030;28;20123;-82
2022/11/30 08:40:13;;;;;;;44.25;25.08;;;6.30;99.90;;;;;;5057369;28;20045;-82
2022/11/30 08:42:39;;;;;;;40.33;24.52;;;6.00;99.90;;;;;;5039994;28;21003;-81
2022/11/30 08:45:05;;;;;;;43.65;24.95;;;6.30;99.90;;;;;;5071614;28;20064;-82
2022/11/30 08:47:31;;;;;;;40.03;24.00;;;6.10;99.90;;;;;;5057960;28;20443;-82
2022/11/30 08:49:57;;;;;;;44.08;25.48;;;6.60;99.90;;;;;;5074599;28;20106;-81
2022/11/30 08:52:23;;;;;;;46.17;27.00;;;6.10;99.90;;;;;;5074114;28;20500;-81
2022/11/30 08:54:49;;;;;;;43.90;25.95;;;6.20;99.90;;;;;;5056580;28;20048;-81
2022/11/30 08:57:16;;;;;;;44.35;25.35;;;6.20;99.90;;;;;;5057362;28;20047;-82
2022/11/30 08:59:42;;;;;;;39.65;23.95;;;6.30;99.90;;;;;;5072484;28;20048;-82
2022/11/30 09:02:10;;;;;;;44.35;24.48;;;6.20;99.90;;;;;;5072505;28;20084;-82
2022/11/30 09:04:36;;;;;;;39.70;23.70;;;6.30;99.90;;;;;;5073674;28;20166;-82
2022/11/30 09:07:02;;;;;;;41.88;24.92;;;6.30;99.90;;;;;;5073202;28;20068;-82
2022/11/30 09:09:28;;;;;;;43.72;24.10;;;6.90;99.90;;;;;;5057541;28;20534;-82
2022/11/30 09:11:53;;;;;;;40.55;24.60;;;6.30;99.90;;;;;;5040811;28;20040;-82
2022/11/30 09:14:19;;;;;;;43.95;23.88;;;6.30;99.90;;;;;;5057149;28;20054;-82
2022/11/30 09:16:45;;;;;;;45.70;24.42;;;6.30;99.90;;;;;;5057252;28;20047;-82
2022/11/30 09:19:10;;;;;;;50.83;25.80;;;6.30;99.90;;;;;;5039941;28;20084;-81
2022/11/30 09:21:36;;;;;;;51.15;30.30;;;6.30;99.90;;;;;;5057114;28;20044;-82
2022/11/30 09:24:02;;;;;;;47.78;24.98;;;6.30;99.90;;;;;;5040255;28;20032;-82
2022/11/30 09:26:28;;;;;;;46.78;25.23;;;6.30;99.90;;;;;;5072650;28;20116;-82
2022/11/30 09:28:53;;;;;;;43.88;24.58;;;6.30;99.90;;;;;;5039055;28;20052;-82
2022/11/30 09:31:22;;;;;;;43.10;24.30;;;6.30;99.90;;;;;;5056519;28;20094;-82
2022/11/30 09:33:48;;;;;;;44.78;24.45;;;7.00;99.90;;;;;;5072013;28;20503;-82
2022/11/30 09:36:17;;;;;;;43.47;24.38;;;6.40;99.90;;;;;;5056700;28;20119;-82
2022/11/30 09:38:43;;;;;;;46.25;25.08;;;6.50;99.90;;;;;;5073756;28;20049;-81
2022/11/30 09:41:12;;;;;;;42.10;24.15;;;6.60;99.90;;;;;;5075773;28;20040;-81
2022/11/30 09:44:12;;;;;;;41.15;21.80;;;6.60;99.90;;;;;;5090983;28;20044;-82
2022/11/30 09:47:06;;;;;;;43.05;23.50;;;6.70;99.90;;;;;;5064679;28;20382;-81
2022/11/30 09:49:40;;;;;;;41.65;22.50;;;6.60;99.90;;;;;;5073878;28;20105;-81
2022/11/30 09:52:15;;;;;;;40.47;22.25;;;6.80;99.90;;;;;;5056441;28;20503;-82
2022/11/30 09:54:44;;;;;;;41.33;22.65;;;6.70;99.90;;;;;;5055385;28;20044;-84
2022/11/30 09:57:28;;;;;;;39.53;21.60;;;6.60;99.90;;;;;;5056601;28;20047;-82
2022/11/30 10:00:00;;;;;;;40.40;22.13;;;6.70;99.90;;;;;;5055408;28;20052;-82
2022/11/30 10:02:31;;;;;;;39.92;21.23;;;6.70;99.90;;;;;;5057491;28;20500;-81
2022/11/30 10:04:58;;;;;;;37.45;20.83;;;7.10;99.90;;;;;;5073691;28;20033;-81
2022/11/30 10:07:55;;;;;;;34.35;20.67;;;6.80;99.90;;;;;;5057535;28;20068;-83
2022/11/30 10:11:01;;;;;;;36.80;21.60;;;6.80;99.90;;;;;;5050568;28;20048;-82
2022/11/30 10:13:58;;;;;;;38.83;21.38;;;6.80;99.90;;;;;;5071872;28;20041;-82
2022/11/30 10:16:39;;;;;;;32.47;20.33;;;6.80;99.90;;;;;;5074308;28;20124;-82
2022/11/30 10:19:42;;;;;;;37.10;20.80;;;6.80;99.90;;;;;;5071735;28;20032;-83
2022/11/30 10:22:23;;;;;;;35.55;20.60;;;6.80;99.90;;;;;;5073800;28;20550;-83
2022/11/30 10:25:14;;;;;;;35.05;20.52;;;6.80;99.90;;;;;;5073285;28;20044;-82
2022/11/30 10:28:07;;;;;;;36.35;20.85;;;6.80;99.90;;;;;;5019398;28;20484;-82
2022/11/30 10:30:35;;;;;;;38.20;20.05;;;6.90;99.90;;;;;;5072867;28;20431;-82
2022/11/30 10:33:15;;;;;;;35.17;21.35;;;6.90;99.90;;;;;;5055173;28;20040;-82
2022/11/30 10:36:02;;;;;;;32.75;18.38;;;7.70;99.90;;;;;;5072563;28;20358;-82
2022/11/30 10:38:43;;;;;;;32.13;18.38;;;6.90;99.90;;;;;;5073151;28;20053;-82
2022/11/30 10:41:32;;;;;;;32.20;19.20;;;7.40;99.90;;;;;;5073517;28;20055;-83
2022/11/30 10:44:11;;;;;;;34.67;19.27;;;6.90;99.90;;;;;;5071645;28;20044;-82
2022/11/30 10:46:42;;;;;;;32.05;19.27;;;6.90;99.90;;;;;;5072974;28;20051;-82
2022/11/30 10:49:17;;;;;;;32.75;18.98;;;6.90;99.90;;;;;;5072549;28;20044;-82
2022/11/30 10:51:48;;;;;;;32.25;19.58;;;6.90;99.90;;;;;;5056023;28;20048;-82
2022/11/30 10:54:17;;;;;;;35.15;19.95;;;6.90;99.90;;;;;;5055438;28;20055;-83
2022/11/30 10:56:43;;;;;;;31.17;18.58;;;7.00;99.90;;;;;;5054374;28;20076;-83
2022/11/30 10:59:15;;;;;;;31.88;19.45;;;7.00;99.90;;;;;;5073613;28;20129;-82
2022/11/30 11:01:41;;;;;;;29.63;18.45;;;7.40;99.90;;;;;;5089345;28;20053;-83
2022/11/30 11:04:23;;;;;;;28.55;18.23;;;7.00;99.90;;;;;;5055705;28;20044;-83
2022/11/30 11:07:08;;;;;;;31.65;18.40;;;6.90;99.90;;;;;;5054438;28;20480;-83
2022/11/30 11:09:46;;;;;;;31.92;18.92;;;7.00;99.90;;;;;;5054556;28;20043;-82
2022/11/30 11:12:25;;;;;;;29.08;18.23;;;7.00;99.90;;;;;;5056361;28;20036;-82
2022/11/30 11:15:22;;;;;;;27.52;17.90;;;7.00;99.90;;;;;;5050754;28;20048;-83
2022/11/30 11:17:49;;;;;;;29.80;18.33;;;7.00;99.90;;;;;;5056390;28;20064;-82
2022/11/30 11:20:38;;;;;;;28.63;18.10;;;7.00;99.90;;;;;;5047491;28;20055;-81
2022/11/30 11:23:04;;;;;;;27.83;18.55;;;7.00;99.90;;;;;;5073388;28;20040;-82
2022/11/30 11:25:41;;;;;;;29.85;19.55;;;7.00;99.90;;;;;;5084993;28;20120;-82
2022/11/30 11:28:14;;;;;;;28.63;18.88;;;7.00;99.90;;;;;;5072623;28;20509;-82
2022/11/30 11:30:40;;;;;;;29.75;19.27;;;7.00;99.90;;;;;;5048862;28;20052;-82
2022/11/30 11:33:12;;;;;;;29.27;18.35;;;7.10;99.90;;;;;;5072196;28;20043;-82
2022/11/30 11:35:54;;;;;;;27.10;18.30;;;7.10;99.90;;;;;;5055748;28;20079;-82
2022/11/30 11:38:26;;;;;;;30.05;18.58;;;7.10;99.90;;;;;;5053776;28;20056;-82
2022/11/30 11:41:17;;;;;;;28.17;18.63;;;7.10;99.90;;;;;;5053631;28;20036;-82
2022/11/30 11:44:00;;;;;;;30.45;18.77;;;7.10;99.90;;;;;;5072915;28;20104;-82
2022/11/30 11:46:27;;;;;;;27.80;18.08;;;7.10;99.90;;;;;;5055924;28;20072;-82
2022/11/30 11:49:18;;;;;;;26.27;18.15;;;7.10;99.90;;;;;;5054439;28;20503;-82
2022/11/30 11:51:44;;;;;;;25.88;18.02;;;7.10;99.90;;;;;;5071296;28;20423;-82
2022/11/30 11:54:26;;;;;;;24.95;16.92;;;7.80;99.90;;;;;;5053851;28;20489;-82
2022/11/30 11:56:55;;;;;;;27.00;17.70;;;7.10;99.90;;;;;;5071704;28;20090;-82
2022/11/30 11:59:31;;;;;;;27.77;18.17;;;7.10;99.90;;;;;;5070552;28;20049;-81
2022/11/30 12:02:06;;;;;;;25.80;17.88;;;7.10;99.90;;;;;;5053319;28;20101;-82
2022/11/30 12:04:36;;;;;;;26.55;18.50;;;7.10;99.90;;;;;;5086822;28;20044;-82
2022/11/30 12:07:09;;;;;;;24.83;16.33;;;7.10;99.90;;;;;;5054969;28;20049;-82
2022/11/30 12:09:42;;;;;;;25.63;17.90;;;7.20;99.90;;;;;;5053734;28;20139;-83
2022/11/30 12:12:12;;;;;;;28.67;19.23;;;7.80;99.90;;;;;;5054465;28;20105;-83
2022/11/30 12:14:37;;;;;;;28.00;17.83;;;7.10;99.90;;;;;;5054561;28;20052;-83
2022/11/30 12:17:27;;;;;;;29.08;19.35;;;7.10;99.90;;;;;;5070838;28;20048;-82
2022/11/30 12:20:14;;;;;;;27.42;18.60;;;7.10;99.90;;;;;;5070420;28;20071;-83
2022/11/30 12:23:05;;;;;;;27.33;18.92;;;7.10;99.90;;;;;;5070121;28;20048;-83
2022/11/30 12:25:45;;;;;;;26.55;18.45;;;7.10;99.90;;;;;;5070631;28;20464;-83
2022/11/30 12:28:18;;;;;;;29.35;19.45;;;7.20;99.90;;;;;;5044620;28;20063;-83
2022/11/30 12:31:02;;;;;;;27.65;18.08;;;7.20;99.90;;;;;;5068884;28;20115;-82
2022/11/30 12:33:46;;;;;;;30.52;18.48;;;7.20;99.90;;;;;;5071084;28;20044;-82
2022/11/30 12:36:34;;;;;;;29.65;19.17;;;7.10;99.90;;;;;;5046396;28;20145;-82
2022/11/30 12:39:09;;;;;;;27.60;18.60;;;7.10;99.90;;;;;;5045963;28;20060;-82
2022/11/30 12:41:53;;;;;;;32.88;19.33;;;7.10;99.90;;;;;;5071915;28;20040;-82
2022/11/30 12:44:27;;;;;;;29.02;18.92;;;7.10;99.90;;;;;;5070031;28;20037;-82
2022/11/30 12:47:32;;;;;;;29.05;18.60;;;7.10;99.90;;;;;;5047115;28;20037;-82
2022/11/30 12:50:10;;;;;;;28.73;18.65;;;7.20;99.90;;;;;;5064182;28;20060;-82
2022/11/30 12:52:52;;;;;;;29.67;20.10;;;7.10;99.90;;;;;;5087139;28;20044;-82